logo
Rechercher aéroport 
image banner adimage banner adimage banner ad
image banner ad

FAOL - Othawa

Situé à Otthawa, South Africa

ICAO - FAOL, IATA -

Données fournies par Airmate  

Information générale

Coordonnées: S24°45'33" E31°24'20"
Élévation : 1253 feet MSL.
 
Voir autres Aéroports à Limpopo

Données opérationnelles

Special qualification required
Heure actuelle UTC:
Heure actuelle locale:
METAR: FAKN 152000Z AUTO 08007KT //// // ////// 15/13 Q1025
TAF: TAF FAKN 150900Z 1510/1518 VRB03KT CAVOK TX22/1512Z TN16/1518Z
Voir NOTAMs / SUP AIP / TFR affectant cet aéroport [VIEW]
Fréquences de communication: [VIEW]

Pistes:

Identifiant RWYQFULongueur (ft)Largeur (ft)SurfaceLDA (ft)
02145°426549SAND
20325°426549SAND

Coordonnées de l'aéroport

Adresse: Otthawa South Africa

Vue satellite de FAOL